Time;durP1;ratioP1;P1;durP2;ratioP2;P2;SDS_P1;SDS_P2;PMS_P1;PMS_P2;Temp;Humidity;BMP_temperature;BMP_pressure;BME280_temperature;BME280_humidity;BME280_pressure;Samples;Min_cycle;Max_cycle;Signal;HPM_P1;HPM_P2
2023/04/07 00:01:07;;;;;;;1.00;0.60;;;5.90;99.90;;;;;;5076943;28;20465;-79
2023/04/07 00:03:36;;;;;;;1.33;0.90;;;6.00;99.90;;;;;;5076608;28;20460;-79
2023/04/07 00:06:03;;;;;;;4.03;0.57;;;6.00;99.90;;;;;;5076897;28;20449;-79
2023/04/07 00:08:30;;;;;;;2.20;0.73;;;6.10;99.90;;;;;;5076811;28;20450;-79
2023/04/07 00:10:57;;;;;;;1.27;1.03;;;6.00;99.90;;;;;;5076387;28;21008;-79
2023/04/07 00:13:25;;;;;;;0.60;0.40;;;6.00;99.90;;;;;;5076458;28;20941;-79
2023/04/07 00:15:52;;;;;;;2.93;0.83;;;6.00;99.90;;;;;;5076718;28;20544;-79
2023/04/07 00:18:19;;;;;;;0.97;0.50;;;6.00;99.90;;;;;;5076640;28;20473;-79
2023/04/07 00:20:46;;;;;;;1.20;0.50;;;6.10;99.90;;;;;;5076267;28;20991;-79
2023/04/07 00:23:12;;;;;;;1.00;0.70;;;6.10;99.90;;;;;;5076255;28;20449;-79
2023/04/07 00:25:39;;;;;;;1.00;0.63;;;6.00;99.90;;;;;;5076533;28;20457;-79
2023/04/07 00:28:06;;;;;;;1.37;0.80;;;6.00;99.90;;;;;;5076504;28;20449;-79
2023/04/07 00:30:34;;;;;;;0.83;0.80;;;6.10;99.90;;;;;;5076283;28;20487;-79
2023/04/07 00:33:00;;;;;;;3.13;1.23;;;6.10;99.90;;;;;;5076411;28;20452;-79
2023/04/07 00:35:27;;;;;;;1.20;1.10;;;6.10;99.90;;;;;;5075969;28;20449;-79
2023/04/07 00:37:54;;;;;;;1.20;1.10;;;6.10;99.90;;;;;;5075993;28;20454;-79
2023/04/07 00:40:21;;;;;;;2.20;0.90;;;6.20;99.90;;;;;;5076174;28;20473;-79
2023/04/07 00:42:47;;;;;;;5.60;0.80;;;6.20;99.90;;;;;;5075894;28;20968;-79
2023/04/07 00:45:14;;;;;;;4.70;1.00;;;6.20;99.90;;;;;;5076171;28;20452;-79
2023/04/07 00:47:42;;;;;;;2.37;1.07;;;6.20;99.90;;;;;;5075671;28;20476;-79
2023/04/07 00:50:10;;;;;;;1.00;0.90;;;6.30;99.90;;;;;;5075948;28;20517;-79
2023/04/07 00:52:37;;;;;;;6.83;1.47;;;6.30;99.90;;;;;;5075712;28;20464;-79
2023/04/07 00:55:04;;;;;;;2.00;0.83;;;6.30;99.90;;;;;;5075734;28;20434;-79
2023/04/07 00:57:30;;;;;;;1.10;1.00;;;6.30;99.90;;;;;;5075752;28;20458;-79
2023/04/07 00:59:57;;;;;;;1.10;0.83;;;6.30;99.90;;;;;;5075847;28;20458;-79
2023/04/07 01:02:32;;;;;;;0.80;0.80;;;6.30;99.90;;;;;;5075564;28;20945;-79
2023/04/07 01:05:09;;;;;;;2.30;0.83;;;6.30;99.90;;;;;;5075849;28;20437;-79
2023/04/07 01:07:43;;;;;;;1.03;0.90;;;6.30;99.90;;;;;;5075486;28;20440;-79
2023/04/07 01:10:18;;;;;;;3.30;1.03;;;6.30;99.90;;;;;;5076207;28;20492;-79
2023/04/07 01:12:52;;;;;;;2.37;1.10;;;6.40;99.90;;;;;;5075727;28;20440;-81
2023/04/07 01:15:22;;;;;;;3.00;1.23;;;6.40;99.90;;;;;;5075978;28;20418;-81
2023/04/07 01:17:52;;;;;;;2.40;1.07;;;6.40;99.90;;;;;;5075607;28;20456;-81
2023/04/07 01:20:23;;;;;;;1.93;1.70;;;6.40;99.90;;;;;;5075488;28;20493;-82
2023/04/07 01:22:54;;;;;;;1.50;1.13;;;6.40;99.90;;;;;;5075210;28;20936;-82
2023/04/07 01:25:42;;;;;;;2.17;1.20;;;6.40;99.90;;;;;;5075463;28;20441;-81
2023/04/07 01:28:21;;;;;;;2.33;1.30;;;6.40;99.90;;;;;;5076236;28;20449;-82
2023/04/07 01:30:50;;;;;;;1.90;0.87;;;6.40;99.90;;;;;;5075203;28;20485;-82
2023/04/07 01:33:19;;;;;;;0.40;0.40;;;6.50;99.90;;;;;;5075264;28;20445;-81
2023/04/07 01:35:47;;;;;;;0.90;0.87;;;6.50;99.90;;;;;;5075106;28;20450;-81
2023/04/07 01:38:15;;;;;;;2.73;1.83;;;6.50;99.90;;;;;;5074887;28;20980;-81
2023/04/07 01:40:43;;;;;;;2.20;1.23;;;6.50;99.90;;;;;;5075106;28;20461;-81
2023/04/07 01:43:11;;;;;;;0.60;0.60;;;6.50;99.90;;;;;;5074746;28;20468;-81
2023/04/07 01:45:39;;;;;;;0.93;0.93;;;6.50;99.90;;;;;;5074554;28;20486;-81
2023/04/07 01:48:09;;;;;;;0.90;0.90;;;6.50;99.90;;;;;;5074686;28;20479;-81
2023/04/07 01:50:37;;;;;;;2.27;1.30;;;6.50;99.90;;;;;;5074783;28;20508;-82
2023/04/07 01:53:05;;;;;;;1.43;1.07;;;6.50;99.90;;;;;;5074864;28;20457;-81
2023/04/07 01:55:32;;;;;;;1.63;0.90;;;6.50;99.90;;;;;;5074832;28;20442;-82
2023/04/07 01:58:03;;;;;;;4.17;0.97;;;6.50;99.90;;;;;;5074799;28;20449;-82
2023/04/07 02:00:30;;;;;;;1.70;0.70;;;6.60;99.90;;;;;;5074365;28;20977;-82
2023/04/07 02:03:04;;;;;;;1.07;0.83;;;6.60;99.90;;;;;;5074352;28;20921;-82
2023/04/07 02:05:34;;;;;;;0.80;0.80;;;6.60;99.90;;;;;;5074748;28;20469;-82
2023/04/07 02:08:04;;;;;;;2.40;0.50;;;6.60;99.90;;;;;;5074106;28;20484;-82
2023/04/07 02:10:35;;;;;;;1.40;1.00;;;6.70;99.90;;;;;;5074415;28;20485;-82
2023/04/07 02:13:04;;;;;;;2.70;1.57;;;6.70;99.90;;;;;;5074239;28;20928;-82
2023/04/07 02:15:31;;;;;;;0.77;0.77;;;6.70;99.90;;;;;;5074195;28;20437;-82
2023/04/07 02:18:00;;;;;;;3.83;1.87;;;6.70;99.90;;;;;;5074133;28;20933;-82
2023/04/07 02:20:28;;;;;;;1.97;1.00;;;6.70;99.90;;;;;;5073953;28;20461;-82
2023/04/07 02:22:56;;;;;;;1.63;0.87;;;6.60;99.90;;;;;;5074259;28;20461;-82
2023/04/07 02:25:25;;;;;;;6.43;1.70;;;6.70;99.90;;;;;;5074214;28;20471;-82
2023/04/07 02:27:52;;;;;;;1.43;1.03;;;6.60;99.90;;;;;;5074219;28;20546;-82
2023/04/07 02:30:20;;;;;;;1.07;0.97;;;6.70;99.90;;;;;;5073667;28;20856;-82
2023/04/07 02:32:47;;;;;;;3.67;1.67;;;6.70;99.90;;;;;;5073860;28;20460;-82
2023/04/07 02:35:15;;;;;;;1.70;1.07;;;6.70;99.90;;;;;;5074074;28;20453;-82
2023/04/07 02:37:42;;;;;;;0.90;0.73;;;6.60;99.90;;;;;;5074047;28;20445;-82
2023/04/07 02:40:11;;;;;;;1.03;0.90;;;6.60;99.90;;;;;;5074112;28;20472;-82
2023/04/07 02:42:38;;;;;;;2.77;1.07;;;6.60;99.90;;;;;;5073897;28;20449;-82
2023/04/07 02:45:05;;;;;;;0.90;0.43;;;6.60;99.90;;;;;;5073886;28;20500;-82
2023/04/07 02:47:33;;;;;;;1.27;0.97;;;6.70;99.90;;;;;;5073316;28;21016;-82
2023/04/07 02:49:59;;;;;;;7.13;1.93;;;6.60;99.90;;;;;;5073367;28;20493;-82
2023/04/07 02:52:26;;;;;;;0.73;0.73;;;6.60;99.90;;;;;;5073779;28;20454;-82
2023/04/07 02:54:53;;;;;;;0.93;0.60;;;6.60;99.90;;;;;;5073430;28;20448;-80
2023/04/07 02:57:21;;;;;;;3.13;0.80;;;6.60;99.90;;;;;;5073352;28;20452;-80
2023/04/07 02:59:48;;;;;;;1.20;0.90;;;6.60;99.90;;;;;;5073272;28;20472;-80
2023/04/07 03:02:14;;;;;;;3.37;1.60;;;6.60;99.90;;;;;;5073329;28;20941;-82
2023/04/07 03:04:41;;;;;;;2.40;1.33;;;6.50;99.90;;;;;;5073626;28;20441;-82
2023/04/07 03:07:08;;;;;;;3.70;1.73;;;6.60;99.90;;;;;;5073556;28;20464;-82
2023/04/07 03:09:35;;;;;;;0.93;0.87;;;6.50;99.90;;;;;;5073113;28;20503;-82
2023/04/07 03:12:02;;;;;;;1.23;0.67;;;6.50;99.90;;;;;;5073208;28;20953;-82
2023/04/07 03:14:30;;;;;;;4.07;1.77;;;6.50;99.90;;;;;;5073489;28;20449;-82
2023/04/07 03:16:57;;;;;;;1.90;1.30;;;6.60;99.90;;;;;;5073497;28;20817;-82
2023/04/07 03:19:23;;;;;;;2.10;1.63;;;6.60;99.90;;;;;;5073167;28;20480;-82
2023/04/07 03:21:50;;;;;;;1.47;0.93;;;6.60;99.90;;;;;;5073999;28;20448;-79
2023/04/07 03:24:17;;;;;;;7.13;1.60;;;6.60;99.90;;;;;;5076172;28;20456;-79
2023/04/07 03:26:44;;;;;;;2.10;1.33;;;6.60;99.90;;;;;;5077005;28;20951;-80
2023/04/07 03:29:10;;;;;;;0.87;0.70;;;6.60;99.90;;;;;;5077042;28;20460;-80
2023/04/07 03:31:38;;;;;;;3.40;2.10;;;6.60;99.90;;;;;;5073331;28;20488;-80
2023/04/07 03:34:05;;;;;;;1.03;0.80;;;6.60;99.90;;;;;;5073016;28;20449;-80
2023/04/07 03:36:32;;;;;;;1.93;1.37;;;6.60;99.90;;;;;;5073360;28;20453;-80
2023/04/07 03:38:59;;;;;;;3.43;2.10;;;6.60;99.90;;;;;;5072833;28;20489;-80
2023/04/07 03:41:25;;;;;;;1.27;1.17;;;6.60;99.90;;;;;;5073180;28;20445;-80
2023/04/07 03:43:52;;;;;;;0.83;0.83;;;6.60;99.90;;;;;;5073222;28;20453;-80
2023/04/07 03:46:19;;;;;;;1.63;1.53;;;6.60;99.90;;;;;;5072745;28;20490;-80
2023/04/07 03:48:47;;;;;;;1.90;0.80;;;6.60;99.90;;;;;;5073084;28;20805;-80
2023/04/07 03:51:15;;;;;;;1.27;1.17;;;6.60;99.90;;;;;;5072713;28;20492;-80
2023/04/07 03:53:41;;;;;;;1.23;0.80;;;6.60;99.90;;;;;;5072811;28;20430;-80
2023/04/07 03:56:08;;;;;;;1.77;1.30;;;6.60;99.90;;;;;;5073078;28;20450;-80
2023/04/07 03:58:35;;;;;;;1.77;1.07;;;6.70;99.90;;;;;;5073035;28;20448;-80
2023/04/07 04:01:02;;;;;;;3.10;1.07;;;6.60;99.90;;;;;;5073011;28;20481;-80
2023/04/07 04:03:29;;;;;;;0.80;0.80;;;6.60;99.90;;;;;;5073010;28;20441;-80
2023/04/07 04:05:57;;;;;;;7.07;1.53;;;6.60;99.90;;;;;;5072671;28;20812;-80
2023/04/07 04:08:24;;;;;;;1.60;1.30;;;6.60;99.90;;;;;;5072941;28;20544;-80
2023/04/07 04:10:51;;;;;;;1.57;1.33;;;6.60;99.90;;;;;;5072488;28;20489;-80
2023/04/07 04:13:18;;;;;;;1.13;0.60;;;6.60;99.90;;;;;;5072883;28;20782;-81
2023/04/07 04:15:44;;;;;;;2.50;1.33;;;6.60;99.90;;;;;;5072870;28;20461;-81
2023/04/07 04:18:11;;;;;;;2.43;1.07;;;6.60;99.90;;;;;;5072550;28;20514;-81
2023/04/07 04:20:38;;;;;;;2.50;1.07;;;6.50;99.90;;;;;;5072788;28;20477;-81
2023/04/07 04:23:06;;;;;;;1.40;0.90;;;6.50;99.90;;;;;;5072814;28;20457;-81
2023/04/07 04:25:33;;;;;;;1.07;0.97;;;6.50;99.90;;;;;;5072464;28;20953;-81
2023/04/07 04:28:00;;;;;;;2.00;1.30;;;6.50;99.90;;;;;;5072750;28;20453;-81
2023/04/07 04:30:26;;;;;;;1.43;0.60;;;6.50;99.90;;;;;;5072643;28;20481;-81
2023/04/07 04:32:54;;;;;;;3.37;1.87;;;6.50;99.90;;;;;;5075367;28;20445;-81
2023/04/07 04:35:20;;;;;;;2.60;1.60;;;6.60;99.90;;;;;;5076031;28;20457;-81
2023/04/07 04:37:47;;;;;;;1.80;1.10;;;6.50;99.90;;;;;;5076016;28;20449;-81
2023/04/07 04:40:16;;;;;;;1.07;0.80;;;6.50;99.90;;;;;;5076206;28;20468;-81
2023/04/07 04:42:42;;;;;;;5.13;2.10;;;6.50;99.90;;;;;;5076188;28;20520;-81
2023/04/07 04:45:10;;;;;;;2.03;0.70;;;6.50;99.90;;;;;;5076164;28;20454;-81
2023/04/07 04:47:37;;;;;;;3.27;1.00;;;6.50;99.90;;;;;;5075667;28;20492;-81
2023/04/07 04:50:05;;;;;;;6.13;1.37;;;6.60;99.90;;;;;;5076053;28;20473;-81
2023/04/07 04:52:32;;;;;;;0.70;0.60;;;6.60;99.90;;;;;;5075761;28;20933;-81
2023/04/07 04:54:59;;;;;;;2.23;1.03;;;6.50;99.90;;;;;;5075700;28;20445;-81
2023/04/07 04:57:27;;;;;;;3.90;1.53;;;6.50;99.90;;;;;;5075949;28;20530;-81
2023/04/07 04:59:54;;;;;;;1.03;0.80;;;6.50;99.90;;;;;;5075864;28;20472;-81
2023/04/07 05:02:21;;;;;;;1.40;1.30;;;6.50;99.90;;;;;;5075877;28;20449;-81
2023/04/07 05:04:48;;;;;;;0.90;0.73;;;6.50;99.90;;;;;;5075890;28;20442;-81
2023/04/07 05:07:15;;;;;;;1.00;0.77;;;6.50;99.90;;;;;;5075806;28;20454;-81
2023/04/07 05:09:41;;;;;;;2.23;1.70;;;6.50;99.90;;;;;;5075624;28;20465;-81
2023/04/07 05:12:08;;;;;;;2.70;1.20;;;6.60;99.90;;;;;;5075591;28;20476;-81
2023/04/07 05:14:36;;;;;;;3.83;1.07;;;6.60;99.90;;;;;;5075689;28;20440;-81
2023/04/07 05:17:03;;;;;;;5.80;1.50;;;6.60;99.90;;;;;;5075618;28;20449;-81
2023/04/07 05:19:29;;;;;;;2.10;1.17;;;6.60;99.90;;;;;;5075512;28;20473;-81
2023/04/07 05:21:56;;;;;;;2.50;0.63;;;6.60;99.90;;;;;;5075509;28;20482;-81
2023/04/07 05:24:24;;;;;;;2.83;1.50;;;6.60;99.90;;;;;;5075211;28;20957;-81
2023/04/07 05:26:51;;;;;;;4.43;1.43;;;6.60;99.90;;;;;;5075410;28;20485;-81
2023/04/07 05:29:18;;;;;;;1.53;1.10;;;6.60;99.90;;;;;;5075326;28;20468;-81
2023/04/07 05:31:46;;;;;;;3.20;1.50;;;6.60;99.90;;;;;;5075293;28;20579;-81
2023/04/07 05:34:13;;;;;;;2.50;0.93;;;6.60;99.90;;;;;;5075317;28;20453;-81
2023/04/07 05:36:40;;;;;;;1.80;0.90;;;6.70;99.90;;;;;;5074959;28;20453;-81
2023/04/07 05:39:07;;;;;;;1.00;0.80;;;6.70;99.90;;;;;;5074798;28;20465;-81
2023/04/07 05:41:33;;;;;;;1.20;1.10;;;6.70;99.90;;;;;;5075166;28;20445;-81
2023/04/07 05:44:00;;;;;;;2.00;0.80;;;6.80;99.90;;;;;;5074099;28;20449;-81
2023/04/07 05:46:28;;;;;;;1.23;1.13;;;6.80;99.90;;;;;;5074565;28;20544;-81
2023/04/07 05:48:56;;;;;;;1.20;1.10;;;6.80;99.90;;;;;;5074949;28;20456;-81
2023/04/07 05:51:23;;;;;;;5.50;1.50;;;6.80;99.90;;;;;;5074930;28;20481;-81
2023/04/07 05:53:49;;;;;;;1.07;0.50;;;6.80;99.90;;;;;;5074920;28;20461;-81
2023/04/07 05:56:16;;;;;;;2.37;1.37;;;6.80;99.90;;;;;;5074907;28;20446;-81
2023/04/07 05:58:43;;;;;;;1.53;1.23;;;6.90;99.90;;;;;;5074794;28;20445;-81
2023/04/07 06:01:10;;;;;;;2.40;0.73;;;6.90;99.90;;;;;;5074462;28;20468;-81
2023/04/07 06:03:36;;;;;;;1.83;0.60;;;6.90;99.90;;;;;;5074723;28;20452;-81
2023/04/07 06:06:05;;;;;;;3.17;0.83;;;6.90;99.90;;;;;;5075381;28;20441;-80
2023/04/07 06:08:32;;;;;;;1.27;1.13;;;7.00;99.90;;;;;;5078269;28;20449;-80
2023/04/07 06:10:58;;;;;;;1.67;0.70;;;7.00;99.90;;;;;;5079949;28;20513;-80
2023/04/07 06:13:25;;;;;;;1.80;1.10;;;7.00;99.90;;;;;;5081096;28;20453;-80
2023/04/07 06:15:52;;;;;;;0.97;0.97;;;7.00;99.90;;;;;;5074868;28;20541;-81
2023/04/07 06:18:18;;;;;;;4.10;1.20;;;7.10;99.90;;;;;;5074700;28;20449;-81
2023/04/07 06:20:45;;;;;;;2.00;1.70;;;7.30;99.90;;;;;;5074012;28;20470;-81
2023/04/07 06:23:13;;;;;;;2.63;2.13;;;7.30;99.90;;;;;;5074294;28;20452;-81
2023/04/07 06:25:40;;;;;;;1.77;1.50;;;7.30;99.90;;;;;;5074224;28;20450;-81
2023/04/07 06:28:07;;;;;;;1.43;1.30;;;7.40;99.90;;;;;;5074277;28;20472;-81
2023/04/07 06:30:34;;;;;;;1.70;0.90;;;7.40;99.90;;;;;;5074098;28;20477;-81
2023/04/07 06:33:01;;;;;;;1.30;0.83;;;7.50;99.90;;;;;;5074046;28;20568;-81
2023/04/07 06:35:28;;;;;;;1.90;1.17;;;7.50;99.90;;;;;;5073816;28;20433;-81
2023/04/07 06:37:54;;;;;;;7.70;1.43;;;7.60;99.90;;;;;;5074040;28;20441;-81
2023/04/07 06:40:22;;;;;;;2.57;1.77;;;7.70;99.90;;;;;;5073575;28;20457;-81
2023/04/07 06:42:50;;;;;;;4.30;1.43;;;7.90;99.90;;;;;;5073937;28;20446;-81
2023/04/07 06:45:17;;;;;;;2.87;1.97;;;8.00;99.90;;;;;;5073841;28;20525;-81
2023/04/07 06:47:44;;;;;;;2.77;1.33;;;8.10;99.90;;;;;;5073833;28;20441;-80
2023/04/07 06:50:11;;;;;;;3.00;1.70;;;8.30;99.90;;;;;;5073443;28;20466;-81
2023/04/07 06:52:38;;;;;;;3.10;1.03;;;8.40;99.90;;;;;;5073761;28;20492;-81
2023/04/07 06:55:06;;;;;;;1.53;1.27;;;8.60;99.90;;;;;;5073565;28;20461;-81
2023/04/07 06:57:34;;;;;;;1.93;1.47;;;8.70;99.90;;;;;;5073402;28;20904;-81
2023/04/07 07:00:01;;;;;;;2.73;1.47;;;8.80;99.90;;;;;;5073622;28;20575;-82
2023/04/07 07:02:28;;;;;;;2.50;1.40;;;8.90;99.90;;;;;;5073303;28;20819;-82
2023/04/07 07:04:54;;;;;;;2.10;1.40;;;9.10;99.90;;;;;;5073598;28;20460;-82
2023/04/07 07:07:21;;;;;;;1.17;0.93;;;9.30;99.90;;;;;;5073526;28;20457;-82
2023/04/07 07:09:48;;;;;;;1.07;1.03;;;9.40;99.90;;;;;;5073553;28;20468;-82
2023/04/07 07:12:16;;;;;;;1.40;1.10;;;9.60;99.90;;;;;;5073119;28;20847;-82
2023/04/07 07:14:44;;;;;;;3.43;1.27;;;9.70;99.90;;;;;;5073501;28;20449;-82
2023/04/07 07:17:11;;;;;;;0.93;0.93;;;9.90;99.90;;;;;;5073458;28;20454;-82
2023/04/07 07:19:38;;;;;;;1.33;1.00;;;10.00;99.90;;;;;;5073386;28;20476;-82
2023/04/07 07:22:05;;;;;;;3.43;1.13;;;10.10;99.90;;;;;;5073518;28;20414;-82
2023/04/07 07:24:32;;;;;;;1.20;0.90;;;10.20;99.90;;;;;;5073387;28;20459;-81
2023/04/07 07:27:00;;;;;;;2.10;0.80;;;10.30;99.90;;;;;;5073049;28;20888;-82
2023/04/07 07:29:27;;;;;;;4.43;1.40;;;10.50;99.90;;;;;;5073248;28;20499;-82
2023/04/07 07:31:55;;;;;;;3.43;2.17;;;11.10;99.90;;;;;;5072943;28;20485;-82
2023/04/07 07:34:22;;;;;;;1.80;1.30;;;12.00;99.90;;;;;;5073032;28;20441;-81
2023/04/07 07:36:49;;;;;;;1.70;1.00;;;13.10;99.90;;;;;;5073293;28;20457;-81
2023/04/07 07:39:15;;;;;;;1.63;1.43;;;14.00;99.90;;;;;;5073198;28;20504;-82
2023/04/07 07:41:42;;;;;;;1.73;1.10;;;14.60;99.90;;;;;;5072907;28;20809;-82
2023/04/07 07:44:09;;;;;;;1.23;0.70;;;15.10;99.90;;;;;;5073215;28;20456;-82
2023/04/07 07:46:36;;;;;;;1.30;1.00;;;15.70;99.90;;;;;;5072840;28;20485;-82
2023/04/07 07:49:04;;;;;;;1.63;1.10;;;16.20;99.90;;;;;;5073079;28;20453;-82
2023/04/07 07:51:31;;;;;;;1.13;1.03;;;16.50;99.90;;;;;;5073071;28;20584;-82
2023/04/07 07:53:58;;;;;;;3.20;1.90;;;16.50;99.90;;;;;;5072834;28;20452;-82
2023/04/07 07:56:25;;;;;;;1.37;1.23;;;16.70;99.90;;;;;;5072739;28;20452;-82
2023/04/07 07:58:51;;;;;;;1.40;1.27;;;16.80;99.90;;;;;;5072809;28;20933;-82
2023/04/07 08:01:18;;;;;;;1.10;1.00;;;16.70;99.90;;;;;;5073083;28;20426;-82
2023/04/07 08:03:45;;;;;;;0.80;0.80;;;16.40;99.90;;;;;;5072987;28;20462;-82
2023/04/07 08:06:13;;;;;;;2.00;1.40;;;16.30;99.90;;;;;;5073106;28;20453;-82
2023/04/07 08:08:40;;;;;;;2.90;1.50;;;16.00;99.90;;;;;;5076990;28;20449;-82
2023/04/07 08:11:07;;;;;;;1.60;1.07;;;15.60;99.90;;;;;;5076560;28;21010;-81
2023/04/07 08:13:34;;;;;;;1.20;1.20;;;15.40;99.90;;;;;;5076742;28;20539;-81
2023/04/07 08:16:00;;;;;;;1.43;1.30;;;15.20;99.90;;;;;;5076801;28;20457;-81
2023/04/07 08:18:27;;;;;;;2.00;1.23;;;15.10;99.90;;;;;;5076697;28;20824;-81
2023/04/07 08:20:54;;;;;;;2.40;1.70;;;15.00;99.90;;;;;;5076252;28;20473;-81
2023/04/07 08:23:22;;;;;;;2.07;1.30;;;15.10;99.90;;;;;;5076317;28;20453;-81
2023/04/07 08:25:49;;;;;;;0.80;0.80;;;15.10;99.90;;;;;;5076526;28;20445;-81
2023/04/07 08:28:15;;;;;;;2.87;1.40;;;15.10;99.90;;;;;;5076611;28;20448;-81
2023/04/07 08:30:42;;;;;;;0.70;0.67;;;14.80;99.90;;;;;;5076459;28;20496;-80
2023/04/07 08:33:09;;;;;;;1.37;0.73;;;14.50;99.90;;;;;;5076338;28;20484;-79
2023/04/07 08:35:36;;;;;;;1.60;1.27;;;14.40;99.90;;;;;;5076045;28;20485;-80
2023/04/07 08:38:03;;;;;;;2.90;1.30;;;14.40;99.90;;;;;;5076320;28;20456;-80
2023/04/07 08:40:33;;;;;;;3.93;1.23;;;13.90;99.90;;;;;;5076254;28;20457;-81
2023/04/07 08:43:01;;;;;;;1.13;0.90;;;13.90;99.90;;;;;;5076274;28;20445;-80
2023/04/07 08:45:28;;;;;;;0.90;0.80;;;14.10;99.90;;;;;;5075923;28;20449;-81
2023/04/07 08:47:56;;;;;;;2.20;0.90;;;14.50;99.90;;;;;;5077036;28;20430;-81
2023/04/07 08:50:27;;;;;;;1.00;0.70;;;14.50;99.90;;;;;;5076031;28;20465;-81
2023/04/07 08:52:55;;;;;;;1.10;1.00;;;14.60;99.90;;;;;;5076109;28;20473;-80
2023/04/07 08:55:22;;;;;;;5.00;1.30;;;14.60;99.90;;;;;;5076040;28;20489;-81
2023/04/07 08:57:51;;;;;;;1.50;0.80;;;14.70;99.90;;;;;;5075658;28;20496;-81
2023/04/07 09:00:18;;;;;;;1.43;0.90;;;14.60;99.90;;;;;;5075906;28;20470;-81
2023/04/07 09:02:46;;;;;;;0.73;0.73;;;14.40;99.90;;;;;;5075900;28;20442;-81
2023/04/07 09:05:14;;;;;;;0.80;0.70;;;14.30;99.90;;;;;;5075839;28;20493;-81
2023/04/07 09:07:42;;;;;;;2.60;0.97;;;14.20;99.90;;;;;;5075811;28;20450;-81
2023/04/07 09:10:09;;;;;;;1.43;1.20;;;14.00;99.90;;;;;;5075377;28;20477;-80
2023/04/07 09:12:37;;;;;;;1.93;1.00;;;14.20;99.90;;;;;;5075321;28;20890;-80
2023/04/07 09:15:06;;;;;;;1.83;0.90;;;14.90;99.90;;;;;;5075345;28;20945;-81
2023/04/07 09:17:33;;;;;;;4.33;0.90;;;15.90;99.90;;;;;;5075841;28;20456;-81
2023/04/07 09:20:01;;;;;;;1.80;0.70;;;17.20;99.90;;;;;;5075232;28;20839;-81
2023/04/07 09:22:35;;;;;;;0.67;0.67;;;18.10;99.90;;;;;;5075536;28;20442;-80
2023/04/07 09:25:10;;;;;;;2.43;1.00;;;19.00;99.60;;;;;;5075455;28;20503;-81
2023/04/07 09:27:37;;;;;;;2.00;1.17;;;19.90;97.30;;;;;;5075484;28;20425;-80
2023/04/07 09:30:13;;;;;;;0.93;0.83;;;20.90;94.10;;;;;;5075333;28;20469;-80
2023/04/07 09:32:41;;;;;;;1.10;0.90;;;21.60;92.20;;;;;;5075366;28;20465;-80
2023/04/07 09:35:08;;;;;;;2.20;1.10;;;21.90;88.80;;;;;;5075363;28;20472;-80
2023/04/07 09:37:36;;;;;;;1.53;0.93;;;21.50;81.50;;;;;;5075288;28;20452;-80
2023/04/07 09:40:03;;;;;;;2.50;0.80;;;20.70;85.20;;;;;;5075166;28;20465;-81
2023/04/07 09:42:31;;;;;;;1.00;0.60;;;19.60;84.00;;;;;;5074907;28;20495;-81
2023/04/07 09:44:58;;;;;;;0.57;0.50;;;18.50;87.40;;;;;;5075136;28;20494;-80
2023/04/07 09:47:32;;;;;;;2.23;0.60;;;17.70;88.50;;;;;;5074650;28;20481;-80
2023/04/07 09:50:05;;;;;;;0.80;0.70;;;17.10;90.10;;;;;;5074984;28;20843;-80
2023/04/07 09:52:50;;;;;;;1.10;1.00;;;16.40;91.30;;;;;;5074949;28;20500;-81
2023/04/07 09:55:18;;;;;;;1.47;0.70;;;16.10;92.50;;;;;;5074976;28;20425;-81
2023/04/07 09:57:46;;;;;;;2.40;0.80;;;15.80;92.20;;;;;;5074841;28;20445;-81
2023/04/07 10:00:13;;;;;;;0.60;0.60;;;15.80;93.60;;;;;;5074744;28;20477;-80
2023/04/07 10:02:42;;;;;;;2.13;0.70;;;16.20;93.30;;;;;;5074715;28;20440;-81
2023/04/07 10:05:10;;;;;;;0.63;0.60;;;16.70;92.90;;;;;;5074435;28;20929;-80
2023/04/07 10:07:37;;;;;;;5.63;0.80;;;17.10;92.10;;;;;;5074656;28;20446;-80
2023/04/07 10:10:04;;;;;;;2.00;0.93;;;17.60;92.00;;;;;;5074596;28;20492;-80
2023/04/07 10:12:33;;;;;;;1.10;0.80;;;17.90;91.60;;;;;;5074456;28;20482;-80
2023/04/07 10:15:01;;;;;;;2.93;0.87;;;17.80;91.10;;;;;;5074499;28;20445;-80
2023/04/07 10:17:28;;;;;;;0.83;0.70;;;17.60;91.80;;;;;;5074123;28;20507;-80
2023/04/07 10:19:58;;;;;;;1.80;0.63;;;17.30;92.10;;;;;;5074003;28;20473;-81
2023/04/07 10:22:26;;;;;;;0.80;0.70;;;16.90;92.00;;;;;;5074359;28;20426;-80
2023/04/07 10:24:58;;;;;;;0.70;0.70;;;16.50;92.90;;;;;;5073983;28;20452;-80
2023/04/07 10:27:31;;;;;;;1.87;1.33;;;16.00;93.10;;;;;;5074934;28;20453;-81
2023/04/07 10:30:00;;;;;;;1.53;1.03;;;15.60;95.20;;;;;;5073679;28;20831;-80
2023/04/07 10:32:27;;;;;;;0.73;0.70;;;15.20;98.00;;;;;;5073759;28;20481;-80
2023/04/07 10:34:59;;;;;;;1.80;1.23;;;14.70;98.30;;;;;;5074035;28;20454;-80
2023/04/07 10:37:27;;;;;;;1.63;0.93;;;14.10;99.90;;;;;;5074345;28;20457;-80
2023/04/07 10:40:26;;;;;;;0.77;0.63;;;13.70;99.90;;;;;;5073684;28;20965;-80
2023/04/07 10:42:53;;;;;;;0.83;0.80;;;13.20;99.90;;;;;;5073954;28;20444;-80
2023/04/07 10:45:59;;;;;;;2.43;0.87;;;12.80;99.90;;;;;;5073745;28;20442;-80
2023/04/07 10:48:31;;;;;;;2.00;1.37;;;12.50;99.90;;;;;;5073890;28;20441;-80
2023/04/07 10:51:18;;;;;;;0.67;0.57;;;12.20;99.90;;;;;;5073506;28;20973;-80
2023/04/07 10:54:19;;;;;;;0.70;0.50;;;12.00;99.90;;;;;;5073689;28;20481;-80
2023/04/07 10:57:10;;;;;;;1.00;0.90;;;11.70;99.90;;;;;;5073813;28;20535;-80
2023/04/07 10:59:38;;;;;;;2.53;1.80;;;11.50;99.90;;;;;;5073774;28;20488;-80
2023/04/07 11:02:31;;;;;;;0.70;0.70;;;11.40;99.90;;;;;;5073643;28;20480;-79
2023/04/07 11:04:58;;;;;;;2.47;1.27;;;11.40;99.90;;;;;;5073328;28;21032;-80
2023/04/07 11:07:53;;;;;;;0.83;0.83;;;11.20;99.90;;;;;;5073309;28;20438;-80
2023/04/07 11:10:22;;;;;;;0.70;0.70;;;11.10;99.90;;;;;;5073505;28;20556;-80
2023/04/07 11:13:00;;;;;;;1.63;0.70;;;11.00;99.90;;;;;;5073461;28;20489;-80
2023/04/07 11:15:27;;;;;;;1.13;0.90;;;10.80;99.90;;;;;;5073481;28;20449;-79
2023/04/07 11:18:12;;;;;;;2.63;0.90;;;10.60;99.90;;;;;;5073485;28;20473;-78
2023/04/07 11:20:46;;;;;;;0.53;0.50;;;10.40;99.90;;;;;;5073118;28;20465;-78
2023/04/07 11:23:15;;;;;;;1.43;0.90;;;10.20;99.90;;;;;;5073522;28;20422;-79
2023/04/07 11:25:44;;;;;;;1.37;1.10;;;9.90;99.90;;;;;;5073438;28;20816;-78
2023/04/07 11:28:13;;;;;;;1.67;0.80;;;9.30;99.90;;;;;;5073381;28;20449;-78
2023/04/07 11:30:44;;;;;;;1.60;1.30;;;8.80;99.90;;;;;;5073342;28;20511;-78
2023/04/07 11:33:15;;;;;;;3.60;0.80;;;8.50;99.90;;;;;;5073329;28;20473;-78
2023/04/07 11:35:51;;;;;;;3.33;1.07;;;8.10;99.90;;;;;;5073061;28;20430;-79
2023/04/07 11:38:19;;;;;;;1.50;0.77;;;7.70;99.90;;;;;;5073047;28;20904;-79
2023/04/07 11:40:46;;;;;;;0.63;0.63;;;7.30;99.90;;;;;;5073189;28;20467;-79
2023/04/07 11:43:17;;;;;;;2.20;0.90;;;7.10;99.90;;;;;;5076912;28;20441;-79
2023/04/07 11:45:44;;;;;;;0.87;0.60;;;7.10;99.90;;;;;;5077105;28;20485;-79
2023/04/07 11:48:27;;;;;;;1.13;0.70;;;7.20;99.90;;;;;;5077054;28;20917;-79
2023/04/07 11:50:54;;;;;;;2.20;0.40;;;7.20;99.90;;;;;;5077230;28;20473;-79
2023/04/07 11:53:27;;;;;;;0.90;0.40;;;7.30;99.90;;;;;;5077212;28;20476;-79
2023/04/07 11:56:17;;;;;;;1.93;0.63;;;7.30;99.90;;;;;;5077223;28;20429;-78
2023/04/07 11:58:48;;;;;;;0.70;0.47;;;7.40;99.90;;;;;;5072661;28;20836;-79
2023/04/07 12:01:14;;;;;;;0.50;0.50;;;7.60;99.90;;;;;;5077030;28;20862;-79
2023/04/07 12:03:57;;;;;;;0.70;0.60;;;7.60;99.90;;;;;;5077064;28;20809;-78
2023/04/07 12:06:29;;;;;;;0.77;0.73;;;7.70;99.90;;;;;;5077031;28;20435;-78
2023/04/07 12:08:57;;;;;;;0.60;0.60;;;7.70;99.90;;;;;;5076847;28;20448;-78
2023/04/07 12:11:25;;;;;;;0.40;0.40;;;7.70;99.90;;;;;;5076914;28;20437;-78
2023/04/07 12:13:52;;;;;;;2.00;1.00;;;7.70;99.90;;;;;;5076748;28;20520;-78
2023/04/07 12:16:19;;;;;;;1.80;0.60;;;7.80;99.90;;;;;;5076803;28;20449;-78
2023/04/07 12:18:45;;;;;;;0.40;0.40;;;7.80;99.90;;;;;;5076705;28;20464;-78
2023/04/07 12:21:12;;;;;;;0.40;0.40;;;7.70;99.90;;;;;;5076618;28;20465;-78
2023/04/07 12:23:39;;;;;;;0.50;0.40;;;7.70;99.90;;;;;;5076604;28;20452;-78
2023/04/07 12:26:09;;;;;;;10.13;0.97;;;7.80;99.90;;;;;;5076297;28;20975;-78
2023/04/07 12:28:36;;;;;;;0.40;0.40;;;7.90;99.90;;;;;;5076524;28;20453;-78
2023/04/07 12:31:04;;;;;;;2.60;0.60;;;8.00;99.90;;;;;;5076135;28;21023;-78
2023/04/07 12:33:30;;;;;;;0.60;0.40;;;8.10;99.90;;;;;;5076415;28;20473;-78
2023/04/07 12:35:57;;;;;;;0.43;0.40;;;8.20;99.90;;;;;;5076427;28;20445;-77
2023/04/07 12:38:24;;;;;;;0.50;0.50;;;8.40;99.90;;;;;;5076368;28;20473;-77
2023/04/07 12:40:51;;;;;;;1.77;0.77;;;8.50;99.90;;;;;;5076259;28;20473;-78
2023/04/07 12:43:19;;;;;;;0.40;0.40;;;8.60;99.90;;;;;;5076038;28;20593;-77
2023/04/07 12:45:47;;;;;;;0.63;0.63;;;8.70;99.90;;;;;;5075776;28;20473;-77
2023/04/07 12:48:15;;;;;;;0.90;0.50;;;8.90;99.90;;;;;;5076270;28;20434;-78
2023/04/07 12:50:41;;;;;;;0.73;0.60;;;9.10;99.90;;;;;;5076006;28;20583;-78
2023/04/07 12:53:08;;;;;;;0.90;0.50;;;9.10;99.90;;;;;;5075661;28;20480;-77
2023/04/07 12:55:35;;;;;;;0.80;0.77;;;9.10;99.90;;;;;;5076098;28;20805;-77
2023/04/07 12:58:02;;;;;;;0.80;0.60;;;9.10;99.90;;;;;;5075789;28;20426;-77
2023/04/07 13:00:30;;;;;;;1.80;0.70;;;9.00;99.90;;;;;;5075981;28;20522;-78